Time;durP1;ratioP1;P1;durP2;ratioP2;P2;SDS_P1;SDS_P2;PMS_P1;PMS_P2;Temp;Humidity;BMP_temperature;BMP_pressure;BME280_temperature;BME280_humidity;BME280_pressure;Samples;Min_cycle;Max_cycle;Signal;HPM_P1;HPM_P2
2024/01/10 00:00:04;;;;;;;103.77;39.23;;;-4.40;99.90;;;;;;5071572;28;20221;-74
2024/01/10 00:02:32;;;;;;;104.20;39.40;;;-4.50;99.90;;;;;;5041008;28;21160;-74
2024/01/10 00:05:03;;;;;;;97.60;36.93;;;-4.50;99.90;;;;;;5042006;28;20225;-76
2024/01/10 00:07:32;;;;;;;101.67;37.10;;;-4.40;99.90;;;;;;5042449;28;20233;-78
2024/01/10 00:10:01;;;;;;;101.97;36.70;;;-4.50;99.90;;;;;;5044784;28;20932;-77
2024/01/10 00:12:34;;;;;;;97.70;37.87;;;-4.40;99.90;;;;;;5058031;28;20591;-75
2024/01/10 00:15:04;;;;;;;101.63;37.10;;;-4.50;99.90;;;;;;5050045;28;20220;-76
2024/01/10 00:17:32;;;;;;;96.77;37.53;;;-4.40;99.90;;;;;;5063413;28;20221;-76
2024/01/10 00:20:03;;;;;;;94.87;37.23;;;-4.40;99.90;;;;;;5040493;28;20239;-77
2024/01/10 00:22:31;;;;;;;96.00;38.13;;;-4.40;99.90;;;;;;5043853;28;20225;-75
2024/01/10 00:25:00;;;;;;;88.93;35.70;;;-4.40;99.90;;;;;;5049836;28;20231;-74
2024/01/10 00:27:28;;;;;;;90.80;35.17;;;-4.40;99.90;;;;;;5044803;28;20233;-74
2024/01/10 00:29:57;;;;;;;86.73;34.83;;;-4.40;99.90;;;;;;5038086;28;20258;-75
2024/01/10 00:32:26;;;;;;;91.27;37.20;;;-4.30;99.90;;;;;;5034338;28;20228;-75
2024/01/10 00:34:55;;;;;;;92.23;37.40;;;-4.60;99.90;;;;;;5039681;28;20221;-76
2024/01/10 00:37:25;;;;;;;96.07;37.13;;;-4.40;99.90;;;;;;5038785;28;20311;-76
2024/01/10 00:39:53;;;;;;;91.60;37.27;;;-4.30;99.90;;;;;;5044119;28;20218;-76
2024/01/10 00:42:22;;;;;;;87.83;35.97;;;-4.40;99.90;;;;;;5045520;28;21085;-74
2024/01/10 00:44:51;;;;;;;94.33;36.37;;;-4.40;99.90;;;;;;5040679;28;20225;-74
2024/01/10 00:47:19;;;;;;;85.80;36.23;;;-4.30;99.90;;;;;;5051840;28;20308;-73
2024/01/10 00:49:48;;;;;;;94.07;36.33;;;-4.30;99.90;;;;;;5043535;28;20720;-73
2024/01/10 00:52:17;;;;;;;94.43;38.03;;;-4.40;99.90;;;;;;5043829;28;20224;-73
2024/01/10 00:54:47;;;;;;;96.73;37.63;;;-4.40;99.90;;;;;;5058923;28;20775;-74
2024/01/10 00:57:15;;;;;;;96.37;36.07;;;-4.40;99.90;;;;;;5040625;28;20606;-77
2024/01/10 00:59:44;;;;;;;100.63;37.20;;;-4.30;99.90;;;;;;5045818;28;20261;-76
2024/01/10 01:02:12;;;;;;;95.67;36.87;;;-4.40;99.90;;;;;;5061746;28;20912;-75
2024/01/10 01:04:41;;;;;;;110.20;40.83;;;-4.50;99.90;;;;;;5044424;28;20231;-75
2024/01/10 01:07:10;;;;;;;95.43;37.40;;;-4.40;99.90;;;;;;5069884;28;20213;-73
2024/01/10 01:09:39;;;;;;;98.63;38.33;;;-4.50;99.90;;;;;;5038929;28;20742;-74
2024/01/10 01:12:08;;;;;;;94.83;38.67;;;-4.50;99.90;;;;;;5040395;28;20224;-75
2024/01/10 01:14:37;;;;;;;95.00;37.50;;;-4.60;99.90;;;;;;5041191;28;20235;-74
2024/01/10 01:17:05;;;;;;;116.33;41.80;;;-4.70;99.90;;;;;;5056232;28;20220;-74
2024/01/10 01:19:34;;;;;;;117.30;43.63;;;-4.60;99.90;;;;;;5057624;28;20770;-74
2024/01/10 01:22:03;;;;;;;120.73;40.77;;;-4.70;99.90;;;;;;5043664;28;20842;-74
2024/01/10 01:24:32;;;;;;;116.87;42.47;;;-4.60;99.90;;;;;;5041716;28;20229;-74
2024/01/10 01:27:00;;;;;;;125.93;43.13;;;-4.60;99.90;;;;;;5040813;28;20232;-75
2024/01/10 01:29:30;;;;;;;120.60;43.97;;;-4.60;99.90;;;;;;5037180;28;20312;-74
2024/01/10 01:31:59;;;;;;;124.07;45.17;;;-4.60;99.90;;;;;;5051207;28;20233;-75
2024/01/10 01:34:27;;;;;;;120.70;43.90;;;-4.60;99.90;;;;;;5043833;28;20225;-74
2024/01/10 01:36:56;;;;;;;113.47;43.33;;;-4.80;99.90;;;;;;5039028;28;20221;-73
2024/01/10 01:39:24;;;;;;;108.73;41.73;;;-4.80;99.90;;;;;;5039905;28;20236;-75
2024/01/10 01:41:53;;;;;;;118.60;42.87;;;-4.80;99.90;;;;;;5058112;28;20668;-74
2024/01/10 01:44:21;;;;;;;119.47;43.10;;;-4.70;99.90;;;;;;5045006;28;20318;-74
2024/01/10 01:46:51;;;;;;;114.13;43.33;;;-4.70;99.90;;;;;;5044027;28;20267;-73
2024/01/10 01:49:20;;;;;;;112.23;41.73;;;-4.60;99.90;;;;;;5044709;28;20288;-75
2024/01/10 01:51:49;;;;;;;110.57;40.13;;;-4.70;99.90;;;;;;5043409;28;20233;-76
2024/01/10 01:54:18;;;;;;;106.37;41.20;;;-4.60;99.90;;;;;;5061050;28;20216;-73
2024/01/10 01:56:47;;;;;;;103.27;41.33;;;-4.60;99.90;;;;;;5043351;28;20281;-74
2024/01/10 01:59:16;;;;;;;111.10;41.40;;;-4.60;99.90;;;;;;5041380;28;20229;-72
2024/01/10 02:01:45;;;;;;;111.53;40.73;;;-4.60;99.90;;;;;;5041116;28;20235;-74
2024/01/10 02:04:15;;;;;;;100.47;39.90;;;-4.60;99.90;;;;;;5049079;28;20227;-73
2024/01/10 02:06:44;;;;;;;100.97;39.10;;;-4.60;99.90;;;;;;5044372;28;20290;-73
2024/01/10 02:09:13;;;;;;;105.20;39.20;;;-4.60;99.90;;;;;;5041076;28;20233;-72
2024/01/10 02:11:41;;;;;;;97.90;39.23;;;-4.60;99.90;;;;;;5055004;28;20786;-72
2024/01/10 02:14:11;;;;;;;106.97;38.73;;;-4.60;99.90;;;;;;5051203;28;20380;-77
2024/01/10 02:16:40;;;;;;;101.10;39.33;;;-4.70;99.90;;;;;;5045072;28;20251;-80
2024/01/10 02:19:29;;;;;;;103.20;39.23;;;-4.70;99.90;;;;;;5061421;28;20240;-81
2024/01/10 02:21:57;;;;;;;103.50;39.23;;;-4.70;99.90;;;;;;5051429;28;20243;-80
2024/01/10 02:24:26;;;;;;;100.10;38.40;;;-4.70;99.90;;;;;;5052623;28;20262;-79
2024/01/10 02:26:56;;;;;;;95.57;38.40;;;-4.70;99.90;;;;;;5051536;28;20287;-80
2024/01/10 02:29:25;;;;;;;107.07;38.10;;;-4.80;99.90;;;;;;5051636;28;20302;-79
2024/01/10 02:31:53;;;;;;;113.93;38.60;;;-4.90;99.90;;;;;;5045676;28;20235;-77
2024/01/10 02:34:22;;;;;;;96.40;37.00;;;-4.90;99.90;;;;;;5076857;28;20227;-80
2024/01/10 02:36:51;;;;;;;103.40;37.67;;;-4.90;99.90;;;;;;5043958;28;20233;-79
2024/01/10 02:39:19;;;;;;;90.80;37.53;;;-4.80;99.90;;;;;;5088848;28;20274;-80
2024/01/10 02:41:48;;;;;;;104.97;37.90;;;-4.80;99.90;;;;;;5045844;28;20315;-81
2024/01/10 02:44:19;;;;;;;98.43;37.00;;;-4.70;99.90;;;;;;5054428;28;20224;-78
2024/01/10 02:46:47;;;;;;;99.73;37.03;;;-4.80;99.90;;;;;;5050489;28;20228;-78
2024/01/10 02:49:18;;;;;;;100.20;37.70;;;-4.80;99.90;;;;;;5047301;28;20228;-72
2024/01/10 02:51:46;;;;;;;103.43;38.03;;;-4.70;99.90;;;;;;5042375;28;20298;-76
2024/01/10 02:54:15;;;;;;;98.37;38.10;;;-4.60;99.90;;;;;;5046060;28;20260;-77
2024/01/10 02:56:43;;;;;;;96.40;37.47;;;-4.80;99.90;;;;;;5044937;28;20268;-79
2024/01/10 02:59:12;;;;;;;100.83;39.23;;;-4.80;99.90;;;;;;5046095;28;20232;-77
2024/01/10 03:01:42;;;;;;;98.20;40.53;;;-4.80;99.90;;;;;;5044055;28;20316;-74
2024/01/10 03:04:12;;;;;;;102.60;38.50;;;-4.80;99.90;;;;;;5063955;28;20935;-76
2024/01/10 03:06:41;;;;;;;101.43;38.80;;;-4.90;99.90;;;;;;5042085;28;20467;-76
2024/01/10 03:09:10;;;;;;;103.87;38.77;;;-4.90;99.90;;;;;;5055706;28;20310;-71
2024/01/10 03:11:38;;;;;;;92.07;39.80;;;-4.90;99.90;;;;;;5039618;28;20229;-72
2024/01/10 03:14:10;;;;;;;103.10;39.43;;;-4.90;99.90;;;;;;5040890;28;20223;-73
2024/01/10 03:16:39;;;;;;;99.87;39.60;;;-5.00;99.90;;;;;;5048102;28;20217;-76
2024/01/10 03:19:09;;;;;;;107.50;41.30;;;-4.90;99.90;;;;;;5053421;28;20622;-75
2024/01/10 03:21:38;;;;;;;118.23;40.67;;;-4.90;99.90;;;;;;5038513;28;20307;-73
2024/01/10 03:24:07;;;;;;;106.90;41.27;;;-4.90;99.90;;;;;;5050685;28;20307;-73
2024/01/10 03:26:36;;;;;;;103.73;40.47;;;-4.80;99.90;;;;;;5036566;28;20619;-74
2024/01/10 03:29:05;;;;;;;108.50;41.43;;;-4.90;99.90;;;;;;5034118;28;20240;-75
2024/01/10 03:31:33;;;;;;;104.00;40.33;;;-4.90;99.90;;;;;;5038127;28;20223;-73
2024/01/10 03:34:02;;;;;;;106.00;39.47;;;-4.90;99.90;;;;;;5045649;28;20572;-74
2024/01/10 03:36:32;;;;;;;109.43;41.03;;;-4.90;99.90;;;;;;5040842;28;20872;-77
2024/01/10 03:39:01;;;;;;;112.57;42.30;;;-5.00;99.90;;;;;;5037648;28;20569;-78
2024/01/10 03:41:29;;;;;;;110.00;42.53;;;-5.00;99.90;;;;;;5069177;28;20269;-78
2024/01/10 03:43:57;;;;;;;109.57;42.47;;;-5.00;99.90;;;;;;5038466;28;20225;-77
2024/01/10 03:46:26;;;;;;;107.67;42.60;;;-5.20;99.90;;;;;;5035653;28;20522;-79
2024/01/10 03:48:54;;;;;;;115.83;43.20;;;-5.10;99.90;;;;;;5039438;28;20245;-79
2024/01/10 03:51:23;;;;;;;110.53;42.20;;;-5.00;99.90;;;;;;5054041;28;20217;-79
2024/01/10 03:53:55;;;;;;;103.57;41.13;;;-4.90;99.90;;;;;;5043713;28;20216;-77
2024/01/10 03:56:23;;;;;;;104.20;39.33;;;-5.00;99.90;;;;;;5044931;28;20245;-76
2024/01/10 03:58:52;;;;;;;121.67;41.97;;;-5.00;99.90;;;;;;5042725;28;20268;-75
2024/01/10 04:01:24;;;;;;;102.10;40.23;;;-4.90;99.90;;;;;;5042709;28;20225;-76
2024/01/10 04:03:52;;;;;;;110.77;39.37;;;-5.00;99.90;;;;;;5035121;28;20237;-79
2024/01/10 04:06:21;;;;;;;107.43;38.20;;;-5.00;99.90;;;;;;5042122;28;20248;-80
2024/01/10 04:08:50;;;;;;;104.00;39.17;;;-5.00;99.90;;;;;;5043119;28;20248;-79
2024/01/10 04:11:20;;;;;;;107.60;39.27;;;-5.00;99.90;;;;;;5045659;28;20221;-79
2024/01/10 04:13:49;;;;;;;101.63;39.77;;;-5.10;99.90;;;;;;5066552;28;20232;-77
2024/01/10 04:16:18;;;;;;;98.37;38.33;;;-5.10;99.90;;;;;;5051801;28;20228;-78
2024/01/10 04:18:46;;;;;;;110.93;40.40;;;-5.00;99.90;;;;;;5053759;28;20229;-78
2024/01/10 04:21:15;;;;;;;103.13;38.27;;;-5.00;99.90;;;;;;5048432;28;20252;-79
2024/01/10 04:23:43;;;;;;;107.40;38.70;;;-5.10;99.90;;;;;;5048164;28;20227;-76
2024/01/10 04:26:12;;;;;;;102.47;38.27;;;-5.10;99.90;;;;;;5044306;28;20680;-78
2024/01/10 04:28:43;;;;;;;106.30;39.50;;;-5.20;99.90;;;;;;5078734;28;20303;-77
2024/01/10 04:31:11;;;;;;;101.37;39.20;;;-5.10;99.90;;;;;;5047101;28;20237;-78
2024/01/10 04:33:39;;;;;;;113.47;38.00;;;-5.20;99.90;;;;;;5046722;28;20274;-78
2024/01/10 04:36:09;;;;;;;100.90;38.53;;;-5.20;99.90;;;;;;5045411;28;20274;-77
2024/01/10 04:38:37;;;;;;;113.77;39.73;;;-5.20;99.90;;;;;;5047559;28;20226;-77
2024/01/10 04:41:05;;;;;;;106.37;38.50;;;-5.10;99.90;;;;;;5046865;28;20762;-77
2024/01/10 04:43:34;;;;;;;107.47;38.73;;;-5.10;99.90;;;;;;5043486;28;20742;-76
2024/01/10 04:46:05;;;;;;;106.40;39.17;;;-5.10;99.90;;;;;;5043538;28;20240;-76
2024/01/10 04:48:33;;;;;;;107.97;38.43;;;-5.00;99.90;;;;;;5055598;28;20235;-77
2024/01/10 04:51:02;;;;;;;98.73;37.73;;;-5.00;99.90;;;;;;5043413;28;20255;-81
2024/01/10 04:53:30;;;;;;;107.37;38.80;;;-5.20;99.90;;;;;;5037113;28;20213;-77
2024/01/10 04:55:59;;;;;;;103.80;40.83;;;-5.20;99.90;;;;;;5058234;28;20303;-79
2024/01/10 04:58:28;;;;;;;94.03;37.13;;;-5.20;99.90;;;;;;5040701;28;20220;-79
2024/01/10 05:00:57;;;;;;;101.10;37.83;;;-5.20;99.90;;;;;;5042441;28;20315;-78
2024/01/10 05:03:26;;;;;;;107.53;39.73;;;-5.20;99.90;;;;;;5039552;28;20252;-78
2024/01/10 05:05:55;;;;;;;109.00;39.80;;;-5.10;99.90;;;;;;5041224;28;20240;-77
2024/01/10 05:08:24;;;;;;;107.40;38.90;;;-5.00;99.90;;;;;;5042228;28;20233;-77
2024/01/10 05:10:52;;;;;;;104.43;40.07;;;-5.10;99.90;;;;;;5041104;28;20252;-77
2024/01/10 05:13:21;;;;;;;101.53;39.03;;;-5.10;99.90;;;;;;5045079;28;20225;-78
2024/01/10 05:15:49;;;;;;;107.57;39.07;;;-5.10;99.90;;;;;;5036181;28;20287;-78
2024/01/10 05:18:19;;;;;;;109.67;39.83;;;-5.10;99.90;;;;;;5041734;28;20270;-77
2024/01/10 05:20:49;;;;;;;112.13;39.60;;;-5.00;99.90;;;;;;5069913;28;20224;-78
2024/01/10 05:23:18;;;;;;;103.37;39.13;;;-5.20;99.90;;;;;;5038893;28;20212;-74
2024/01/10 05:25:46;;;;;;;100.80;39.27;;;-5.10;99.90;;;;;;5041315;28;20216;-77
2024/01/10 05:28:14;;;;;;;108.83;39.20;;;-5.30;99.90;;;;;;5042809;28;20228;-78
2024/01/10 05:30:43;;;;;;;108.17;39.37;;;-5.30;99.90;;;;;;5043448;28;20235;-77
2024/01/10 05:33:12;;;;;;;110.03;40.90;;;-5.30;99.90;;;;;;5044394;28;20315;-77
2024/01/10 05:35:40;;;;;;;110.10;38.63;;;-5.40;99.90;;;;;;5057241;28;20232;-77
2024/01/10 05:38:10;;;;;;;103.17;38.33;;;-5.30;99.90;;;;;;5055804;28;20232;-74
2024/01/10 05:40:39;;;;;;;108.10;39.23;;;-5.20;99.90;;;;;;5037175;28;21005;-75
2024/01/10 05:43:10;;;;;;;118.13;39.70;;;-5.30;99.90;;;;;;5040644;28;20695;-72
2024/01/10 05:45:38;;;;;;;103.80;38.03;;;-5.20;99.90;;;;;;5051789;28;20695;-73
2024/01/10 05:48:07;;;;;;;103.73;38.97;;;-5.30;99.90;;;;;;5038206;28;20217;-74
2024/01/10 05:50:36;;;;;;;109.10;39.83;;;-5.30;99.90;;;;;;5049217;28;20234;-78
2024/01/10 05:53:05;;;;;;;107.67;41.17;;;-5.40;99.90;;;;;;5042602;28;20701;-78
2024/01/10 05:55:34;;;;;;;110.90;39.07;;;-5.40;99.90;;;;;;5041406;28;20224;-78
2024/01/10 05:58:03;;;;;;;108.03;40.20;;;-5.40;99.90;;;;;;5041006;28;20247;-79
2024/01/10 06:00:32;;;;;;;112.17;39.37;;;-5.40;99.90;;;;;;5047681;28;20634;-78
2024/01/10 06:03:00;;;;;;;107.83;40.50;;;-5.20;99.90;;;;;;5041239;28;20680;-78
2024/01/10 06:05:29;;;;;;;112.23;38.87;;;-5.20;99.90;;;;;;5054831;28;20255;-79
2024/01/10 06:07:59;;;;;;;113.03;40.10;;;-5.20;99.90;;;;;;5040079;28;20223;-80
2024/01/10 06:10:29;;;;;;;106.47;38.90;;;-5.30;99.90;;;;;;5045913;28;20224;-80
2024/01/10 06:12:59;;;;;;;106.50;40.40;;;-5.30;99.90;;;;;;5047326;28;20270;-79
2024/01/10 06:15:28;;;;;;;109.07;40.50;;;-5.40;99.90;;;;;;5057193;28;20220;-80
2024/01/10 06:17:56;;;;;;;115.07;39.90;;;-5.30;99.90;;;;;;5043168;28;20229;-79
2024/01/10 06:20:25;;;;;;;115.17;40.43;;;-5.30;99.90;;;;;;5059318;28;20226;-80
2024/01/10 06:22:53;;;;;;;114.07;41.30;;;-5.40;99.90;;;;;;5038659;28;20365;-75
2024/01/10 06:25:23;;;;;;;114.47;43.10;;;-5.40;99.90;;;;;;5039408;28;20286;-78
2024/01/10 06:27:50;;;;;;;115.47;39.90;;;-5.30;99.90;;;;;;5059715;28;20862;-77
2024/01/10 06:30:20;;;;;;;108.33;41.83;;;-5.30;99.90;;;;;;5073017;28;20719;-75
2024/01/10 06:32:49;;;;;;;115.10;40.77;;;-5.30;99.90;;;;;;5032444;28;20231;-77
2024/01/10 06:35:18;;;;;;;107.90;40.37;;;-5.30;99.90;;;;;;5070360;28;20223;-76
2024/01/10 06:37:46;;;;;;;108.20;40.17;;;-5.30;99.90;;;;;;5040793;28;20231;-76
2024/01/10 06:40:16;;;;;;;117.33;40.63;;;-5.20;99.90;;;;;;5039943;28;20225;-75
2024/01/10 06:42:45;;;;;;;116.37;42.03;;;-5.30;99.90;;;;;;5040127;28;21106;-75
2024/01/10 06:45:13;;;;;;;123.67;42.20;;;-5.30;99.90;;;;;;5040086;28;20221;-76
2024/01/10 06:47:44;;;;;;;118.20;42.17;;;-5.50;99.90;;;;;;5043074;28;20406;-76
2024/01/10 06:50:12;;;;;;;117.13;42.20;;;-5.30;99.90;;;;;;5052523;28;20226;-72
2024/01/10 06:52:41;;;;;;;120.10;40.23;;;-5.30;99.90;;;;;;5033386;28;20227;-79
2024/01/10 06:55:10;;;;;;;115.73;42.80;;;-5.30;99.90;;;;;;5040516;28;20247;-76
2024/01/10 06:57:38;;;;;;;113.70;41.73;;;-5.20;99.90;;;;;;5074882;28;20242;-77
2024/01/10 07:00:10;;;;;;;112.67;41.60;;;-5.30;99.90;;;;;;5038135;28;20743;-78
2024/01/10 07:02:40;;;;;;;108.37;40.97;;;-5.20;99.90;;;;;;5045652;28;20259;-80
2024/01/10 07:05:11;;;;;;;120.27;43.67;;;-5.20;99.90;;;;;;5044757;28;20350;-77
2024/01/10 07:07:40;;;;;;;122.03;45.30;;;-5.20;99.90;;;;;;5043188;28;20235;-74
2024/01/10 07:10:09;;;;;;;116.20;44.10;;;-5.20;99.90;;;;;;5069879;28;20217;-73
2024/01/10 07:12:37;;;;;;;116.80;43.93;;;-5.20;99.90;;;;;;5044940;28;20638;-78
2024/01/10 07:15:07;;;;;;;115.93;43.43;;;-5.30;99.90;;;;;;5042124;28;20311;-80
2024/01/10 07:17:35;;;;;;;117.70;45.33;;;-5.10;99.90;;;;;;5045024;28;20221;-75
2024/01/10 07:20:05;;;;;;;122.93;43.67;;;-5.20;99.90;;;;;;5045033;28;20213;-76
2024/01/10 07:22:35;;;;;;;122.07;44.63;;;-5.20;99.90;;;;;;5044894;28;20235;-75
2024/01/10 07:25:05;;;;;;;122.00;44.37;;;-5.20;99.90;;;;;;5043861;28;20218;-74
2024/01/10 07:27:37;;;;;;;129.77;45.23;;;-5.30;99.90;;;;;;5056683;28;20225;-74
2024/01/10 07:30:13;;;;;;;117.43;44.83;;;-5.30;99.90;;;;;;5065500;28;20317;-73
2024/01/10 07:32:42;;;;;;;124.03;45.23;;;-5.20;99.90;;;;;;5045153;28;20229;-76
2024/01/10 07:35:11;;;;;;;114.97;44.73;;;-5.10;99.90;;;;;;5047250;28;20235;-75
2024/01/10 07:37:43;;;;;;;131.63;46.47;;;-5.00;99.90;;;;;;5076437;28;20266;-77
2024/01/10 07:40:13;;;;;;;115.77;44.20;;;-5.00;99.90;;;;;;5044640;28;20260;-77
2024/01/10 07:42:43;;;;;;;131.97;47.07;;;-5.10;99.90;;;;;;5080357;28;20906;-77
2024/01/10 07:45:12;;;;;;;137.53;47.93;;;-5.10;99.90;;;;;;5058666;28;20270;-75
2024/01/10 07:47:41;;;;;;;132.63;46.90;;;-5.00;99.90;;;;;;5050462;28;20230;-75
2024/01/10 07:50:14;;;;;;;127.40;46.87;;;-5.00;99.90;;;;;;5051214;28;20246;-75
2024/01/10 07:52:45;;;;;;;130.40;47.83;;;-4.90;99.90;;;;;;5066633;28;20223;-75
2024/01/10 07:55:15;;;;;;;123.20;46.27;;;-4.90;99.90;;;;;;5062613;28;20220;-74
2024/01/10 07:57:44;;;;;;;124.20;45.57;;;-4.90;99.90;;;;;;5062243;28;20224;-76
2024/01/10 08:00:13;;;;;;;134.33;47.17;;;-4.90;99.90;;;;;;5044507;28;20230;-76
2024/01/10 08:02:42;;;;;;;118.60;44.90;;;-4.80;99.90;;;;;;5055777;28;20225;-77
2024/01/10 08:05:12;;;;;;;133.13;47.60;;;-4.80;99.90;;;;;;5038642;28;20221;-76
2024/01/10 08:07:42;;;;;;;119.33;46.63;;;-4.90;99.90;;;;;;5070642;28;20271;-76
2024/01/10 08:10:13;;;;;;;123.90;47.43;;;-4.80;99.90;;;;;;5043523;28;20217;-76
2024/01/10 08:12:42;;;;;;;121.37;48.13;;;-4.60;99.90;;;;;;5051103;28;20447;-76
2024/01/10 08:15:11;;;;;;;121.47;47.20;;;-4.70;99.90;;;;;;5046464;28;20228;-77
2024/01/10 08:17:40;;;;;;;119.10;45.63;;;-4.80;99.90;;;;;;5041806;28;20324;-76
2024/01/10 08:20:10;;;;;;;126.57;46.53;;;-4.70;99.90;;;;;;5044297;28;20274;-76
2024/01/10 08:22:40;;;;;;;127.30;46.60;;;-4.70;99.90;;;;;;5041189;28;20708;-77
2024/01/10 08:25:12;;;;;;;121.63;46.73;;;-4.70;99.90;;;;;;5056104;28;20217;-77
2024/01/10 08:27:41;;;;;;;123.00;45.20;;;-4.70;99.90;;;;;;5056002;28;20747;-77
2024/01/10 08:30:13;;;;;;;127.97;46.60;;;-4.60;99.90;;;;;;5041945;28;20315;-78
2024/01/10 08:32:41;;;;;;;117.23;46.50;;;-4.50;99.90;;;;;;5061704;28;20224;-79
2024/01/10 08:35:10;;;;;;;119.10;47.20;;;-4.50;99.90;;;;;;5044339;28;20322;-78
2024/01/10 08:37:42;;;;;;;118.63;46.73;;;-4.50;99.90;;;;;;5046129;28;20223;-77
2024/01/10 08:40:15;;;;;;;124.47;47.17;;;-4.50;99.90;;;;;;5043915;28;20231;-76
2024/01/10 08:42:43;;;;;;;120.40;46.90;;;-4.40;99.90;;;;;;5043782;28;20759;-77
2024/01/10 08:45:12;;;;;;;126.37;46.90;;;-4.40;99.90;;;;;;5046022;28;20221;-78
2024/01/10 08:47:41;;;;;;;116.87;47.00;;;-4.30;99.90;;;;;;5043829;28;20283;-78
2024/01/10 08:50:11;;;;;;;123.40;46.43;;;-4.30;99.90;;;;;;5046892;28;20232;-78
2024/01/10 08:52:39;;;;;;;117.57;47.70;;;-4.20;99.90;;;;;;5047126;28;20771;-77
2024/01/10 08:55:08;;;;;;;121.80;45.73;;;-4.10;99.90;;;;;;5041607;28;20312;-77
2024/01/10 08:57:42;;;;;;;112.23;45.10;;;-4.10;99.90;;;;;;5077165;28;20286;-76
2024/01/10 09:00:15;;;;;;;114.33;44.30;;;-4.20;99.90;;;;;;5046500;28;20217;-77
2024/01/10 09:02:43;;;;;;;108.83;43.57;;;-4.30;99.90;;;;;;5041836;28;20220;-78
2024/01/10 09:05:12;;;;;;;110.53;42.20;;;-4.30;99.90;;;;;;5041788;28;20228;-79
2024/01/10 09:07:42;;;;;;;105.80;41.47;;;-4.30;99.90;;;;;;5043209;28;20236;-79
2024/01/10 09:10:13;;;;;;;103.70;43.23;;;-4.10;99.90;;;;;;5054468;28;20225;-79
2024/01/10 09:12:45;;;;;;;108.13;42.93;;;-4.10;99.90;;;;;;5056679;28;20262;-78
2024/01/10 09:15:15;;;;;;;109.07;44.07;;;-4.00;99.90;;;;;;5072513;28;20221;-79
2024/01/10 09:17:44;;;;;;;108.53;43.33;;;-3.90;99.90;;;;;;5047792;28;20776;-78
2024/01/10 09:20:13;;;;;;;108.17;42.60;;;-3.90;99.90;;;;;;5051749;28;20220;-77
2024/01/10 09:22:42;;;;;;;120.40;47.00;;;-3.80;99.90;;;;;;5073296;28;20239;-75
2024/01/10 09:25:12;;;;;;;113.77;45.83;;;-3.80;99.90;;;;;;5063284;28;20849;-78
2024/01/10 09:27:41;;;;;;;114.97;45.07;;;-3.70;99.90;;;;;;5036714;28;20291;-79
2024/01/10 09:30:12;;;;;;;132.47;45.93;;;-3.70;99.90;;;;;;5048480;28;20609;-79
2024/01/10 09:32:41;;;;;;;117.77;46.60;;;-3.70;99.90;;;;;;5048289;28;20733;-78
2024/01/10 09:35:10;;;;;;;120.37;46.30;;;-3.60;99.90;;;;;;5072412;28;20372;-79
2024/01/10 09:37:38;;;;;;;119.93;46.97;;;-3.60;99.90;;;;;;5044795;28;20245;-78
2024/01/10 09:40:08;;;;;;;121.27;48.00;;;-3.70;99.90;;;;;;5043167;28;20229;-80
2024/01/10 09:42:37;;;;;;;120.97;47.80;;;-3.60;99.90;;;;;;5042243;28;20232;-78
2024/01/10 09:45:09;;;;;;;130.90;49.60;;;-3.50;99.90;;;;;;5058965;28;20244;-78
2024/01/10 09:47:42;;;;;;;117.97;48.07;;;-3.50;99.90;;;;;;5043765;28;20229;-78
2024/01/10 09:50:11;;;;;;;129.20;48.27;;;-3.40;99.90;;;;;;5045691;28;20216;-76
2024/01/10 09:52:44;;;;;;;129.07;48.70;;;-3.50;99.90;;;;;;5042032;28;20225;-77
2024/01/10 09:55:14;;;;;;;131.53;49.37;;;-3.30;99.90;;;;;;5041123;28;20267;-78
2024/01/10 09:57:43;;;;;;;116.73;48.57;;;-3.30;99.90;;;;;;5040226;28;20232;-77
2024/01/10 10:00:15;;;;;;;129.57;50.10;;;-3.40;99.90;;;;;;5057662;28;20324;-79
2024/01/10 10:02:49;;;;;;;133.80;50.83;;;-3.40;99.90;;;;;;5034330;28;20209;-80
2024/01/10 10:05:18;;;;;;;124.87;49.70;;;-3.30;99.90;;;;;;5042632;28;20255;-78
2024/01/10 10:07:48;;;;;;;128.03;49.47;;;-3.30;99.90;;;;;;5043976;28;20308;-80
2024/01/10 10:10:18;;;;;;;123.63;49.67;;;-3.20;99.90;;;;;;5038307;28;20213;-78
2024/01/10 10:12:48;;;;;;;117.87;49.17;;;-3.10;99.90;;;;;;5073971;28;20240;-79
2024/01/10 10:15:19;;;;;;;128.17;50.87;;;-3.00;99.90;;;;;;5042587;28;20228;-80
2024/01/10 10:17:50;;;;;;;131.60;49.67;;;-3.00;99.90;;;;;;5038457;28;20279;-79
2024/01/10 10:20:22;;;;;;;133.80;50.80;;;-3.00;99.90;;;;;;5034766;28;20254;-79
2024/01/10 10:23:02;;;;;;;127.60;51.90;;;-3.00;99.90;;;;;;5043222;28;20226;-78
2024/01/10 10:25:32;;;;;;;127.07;49.43;;;-3.00;99.90;;;;;;5052952;28;20303;-77
2024/01/10 10:28:02;;;;;;;123.70;50.63;;;-2.90;99.90;;;;;;5036055;28;20603;-78
2024/01/10 10:30:32;;;;;;;117.57;48.17;;;-2.80;99.90;;;;;;5051140;28;20225;-78
2024/01/10 10:33:02;;;;;;;117.50;47.20;;;-2.80;99.90;;;;;;5042611;28;20230;-78
2024/01/10 10:35:33;;;;;;;119.87;48.70;;;-2.90;99.90;;;;;;5042872;28;20240;-78
2024/01/10 10:38:10;;;;;;;119.30;48.17;;;-3.10;99.90;;;;;;5033114;28;20751;-77
2024/01/10 10:40:39;;;;;;;118.27;48.73;;;-3.20;99.90;;;;;;5036624;28;20977;-76
2024/01/10 10:43:14;;;;;;;114.23;48.50;;;-3.10;99.90;;;;;;5040087;28;20787;-77
2024/01/10 10:45:48;;;;;;;118.80;46.77;;;-3.00;99.90;;;;;;5037926;28;20239;-77
2024/01/10 10:48:20;;;;;;;121.03;50.27;;;-2.90;99.90;;;;;;5036513;28;20258;-76
2024/01/10 10:51:00;;;;;;;121.47;49.73;;;-2.80;99.90;;;;;;5043884;28;20307;-75
2024/01/10 10:53:30;;;;;;;123.30;49.40;;;-2.70;99.90;;;;;;5054963;28;20735;-75
2024/01/10 10:56:01;;;;;;;123.60;50.60;;;-2.70;99.90;;;;;;5073914;28;20611;-76
2024/01/10 10:58:31;;;;;;;125.33;50.03;;;-2.60;99.90;;;;;;5037215;28;20236;-74
2024/01/10 11:01:01;;;;;;;122.57;48.67;;;-2.50;99.90;;;;;;5040301;28;20230;-76
2024/01/10 11:03:34;;;;;;;118.50;49.30;;;-2.40;99.90;;;;;;5037126;28;20300;-74
2024/01/10 11:06:05;;;;;;;115.53;48.80;;;-2.50;99.90;;;;;;5038671;28;20234;-72
2024/01/10 11:08:37;;;;;;;131.20;49.77;;;-2.40;99.90;;;;;;5049536;28;20237;-75
2024/01/10 11:11:23;;;;;;;123.63;49.97;;;-2.40;99.90;;;;;;5039807;28;20731;-74
2024/01/10 11:14:05;;;;;;;121.50;49.87;;;-2.30;99.90;;;;;;5038685;28;20236;-73
2024/01/10 11:16:49;;;;;;;119.53;50.83;;;-2.30;99.90;;;;;;5051599;28;20297;-73
2024/01/10 11:19:44;;;;;;;121.33;51.47;;;-2.30;99.90;;;;;;5042322;28;20843;-76
2024/01/10 11:22:26;;;;;;;126.03;48.70;;;-2.20;99.90;;;;;;5044448;28;20221;-77
2024/01/10 11:24:55;;;;;;;131.50;52.23;;;-2.20;99.90;;;;;;5044592;28;20225;-77
2024/01/10 11:27:27;;;;;;;120.53;50.63;;;-2.40;99.90;;;;;;5056437;28;20896;-76
2024/01/10 11:29:58;;;;;;;116.93;49.73;;;-2.30;99.90;;;;;;5043329;28;20281;-75
2024/01/10 11:32:29;;;;;;;122.00;50.57;;;-2.20;99.90;;;;;;5075120;28;20292;-75
2024/01/10 11:35:00;;;;;;;123.10;50.73;;;-2.10;99.90;;;;;;5074110;28;20218;-75
2024/01/10 11:37:40;;;;;;;122.47;50.00;;;-2.10;99.90;;;;;;5047973;28;20270;-74
2024/01/10 11:40:10;;;;;;;129.17;53.50;;;-2.10;99.90;;;;;;5038343;28;20257;-75
2024/01/10 11:42:47;;;;;;;114.77;50.87;;;-2.10;99.90;;;;;;5045481;28;20242;-76
2024/01/10 11:45:37;;;;;;;128.07;50.20;;;-2.10;99.90;;;;;;5038794;28;20412;-76
2024/01/10 11:48:08;;;;;;;118.90;50.73;;;-2.10;99.90;;;;;;5059108;28;20251;-75
2024/01/10 11:50:38;;;;;;;123.17;53.03;;;-2.00;99.90;;;;;;5052626;28;20227;-75
2024/01/10 11:53:07;;;;;;;125.10;51.33;;;-2.00;99.90;;;;;;5042180;28;20248;-76
2024/01/10 11:55:52;;;;;;;119.80;50.47;;;-2.00;99.90;;;;;;5044596;28;20224;-76
2024/01/10 11:58:20;;;;;;;121.90;50.57;;;-1.90;99.90;;;;;;5041563;28;20708;-74
2024/01/10 12:00:50;;;;;;;115.13;49.80;;;-1.90;99.90;;;;;;5044773;28;20294;-75
2024/01/10 12:03:19;;;;;;;124.93;50.37;;;-1.90;99.90;;;;;;5039120;28;20226;-75
2024/01/10 12:05:51;;;;;;;125.77;51.50;;;-1.90;99.90;;;;;;5045563;28;20304;-76
2024/01/10 12:08:21;;;;;;;119.50;52.27;;;-1.80;99.90;;;;;;5040482;28;20222;-75
2024/01/10 12:10:49;;;;;;;127.33;52.27;;;-1.80;99.90;;;;;;5045954;28;20254;-75
2024/01/10 12:13:18;;;;;;;129.33;53.53;;;-1.70;99.90;;;;;;5043587;28;20225;-76
2024/01/10 12:15:47;;;;;;;114.73;49.97;;;-1.70;99.90;;;;;;5053995;28;20304;-75
2024/01/10 12:18:16;;;;;;;123.87;52.50;;;-1.60;99.90;;;;;;5049601;28;20270;-76
2024/01/10 12:20:45;;;;;;;116.33;50.47;;;-1.60;99.90;;;;;;5067317;28;20731;-76
2024/01/10 12:23:14;;;;;;;123.37;51.47;;;-1.60;99.90;;;;;;5048142;28;20362;-75
2024/01/10 12:25:43;;;;;;;126.13;51.30;;;-1.60;99.90;;;;;;5043897;28;20262;-76
2024/01/10 12:28:16;;;;;;;127.07;53.47;;;-1.60;99.90;;;;;;5062303;28;20563;-77
2024/01/10 12:30:44;;;;;;;121.43;50.60;;;-1.50;99.90;;;;;;5039798;28;20983;-76